Terminal Aerodrome Forecast
Issued by NWS Riverton, WY

Home | Current Version | Previous Version | Text Only | Print | Product List | Glossary On
Versions: 1 2 3 4 5 6 7 8 9 10 11 12 13 14 15 16 17 18
739
FTUS45 KRIW 191729
TAFRIW
TAF
KRIW 191729Z 1918/2018 29015KT P6SM SCT050 BKN100
     FM192100 29020G30KT P6SM SCT060 BKN110
      TEMPO 1921/2001 29026G36KT
     FM200100 29020KT P6SM SCT100 BKN200
     FM200800 28011KT P6SM SCT100
     FM201700 22013G19KT P6SM SCT100 SCT200=

USA.gov is the U.S. government's official web portal to all federal, state and local government web resources and services.